Terminal Aerodrome Forecast
Issued by NWS

Home | Current Version | Previous Version | Text Only | Print | Product List | Glossary On
Versions: 1 2 3 4 5 6 7 8 9 10 11 12 13 14 15 16 17 18 19 20 21 22 23 24 25
645
FTUS43 KGRR 261731
TAFLAN
TAF
KLAN 261731Z 2618/2718 11010KT 5SM -RA BR OVC006
      TEMPO 2618/2620 1SM RA BR OVC004
     FM262000 14003KT 6SM BR OVC007
     FM270000 19005KT 2SM -RA BR OVC007
     FM270400 22005KT 5SM BR OVC007
     FM270900 24004KT 1/2SM FG VV002
     FM271200 24005KT P6SM OVC008
     FM271500 25006KT P6SM OVC015=

USA.gov is the U.S. government's official web portal to all federal, state and local government web resources and services.